Time;durP1;ratioP1;P1;durP2;ratioP2;P2;SDS_P1;SDS_P2;PMS_P1;PMS_P2;Temp;Humidity;BMP_temperature;BMP_pressure;BME280_temperature;BME280_humidity;BME280_pressure;Samples;Min_cycle;Max_cycle;Signal;HPM_P1;HPM_P2
2021/03/15 00:00:32;;;;;;;;;;;;;;;2.75;89.74;100709.13;5061830;28;1767;-73
2021/03/15 00:02:57;;;;;;;;;;;;;;;2.78;90.42;100710.44;5065634;28;1821;-73
2021/03/15 00:05:23;;;;;;;;;;;;;;;2.83;89.57;100710.38;5066219;28;1835;-74
2021/03/15 00:07:48;;;;;;;;;;;;;;;2.88;89.61;100701.31;5063943;28;1939;-73
2021/03/15 00:10:15;;;;;;;;;;;;;;;2.88;89.45;100704.84;5069701;28;1890;-73
2021/03/15 00:12:42;;;;;;;;;;;;;;;2.92;89.18;100699.59;5067885;28;1819;-73
2021/03/15 00:15:10;;;;;;;;;;;;;;;2.97;88.70;100703.06;5068132;28;1727;-74
2021/03/15 00:17:35;;;;;;;;;;;;;;;2.95;88.87;100708.00;5069202;28;1796;-73
2021/03/15 00:20:01;;;;;;;;;;;;;;;2.87;90.44;100702.41;5069185;28;1722;-73
2021/03/15 00:22:26;;;;;;;;;;;;;;;2.78;91.00;100697.59;5069412;28;1591;-73
2021/03/15 00:24:51;;;;;;;;;;;;;;;2.75;90.69;100700.94;5069372;28;1786;-73
2021/03/15 00:27:16;;;;;;;;;;;;;;;2.74;90.97;100702.03;5066762;28;1866;-73
2021/03/15 00:29:42;;;;;;;;;;;;;;;2.75;90.36;100691.94;5059142;28;1972;-73
2021/03/15 00:32:07;;;;;;;;;;;;;;;2.72;90.79;100687.91;5066301;28;1787;-73
2021/03/15 00:34:33;;;;;;;;;;;;;;;2.71;90.28;100696.38;5068846;28;1897;-73
2021/03/15 00:36:59;;;;;;;;;;;;;;;2.59;90.63;100691.34;5069082;28;1882;-74
2021/03/15 00:39:25;;;;;;;;;;;;;;;2.51;91.10;100690.09;5065002;28;1952;-73
2021/03/15 00:41:50;;;;;;;;;;;;;;;2.40;91.52;100683.16;5064777;28;2017;-73
2021/03/15 00:44:16;;;;;;;;;;;;;;;2.36;91.15;100682.13;5068043;28;2459;-73
2021/03/15 00:46:41;;;;;;;;;;;;;;;2.27;91.95;100673.78;5068233;28;1773;-74
2021/03/15 00:49:06;;;;;;;;;;;;;;;2.17;91.85;100668.47;5075426;28;1981;-74
2021/03/15 00:51:32;;;;;;;;;;;;;;;2.14;92.71;100669.03;5068837;28;1940;-74
2021/03/15 00:53:57;;;;;;;;;;;;;;;2.06;92.77;100681.41;5084328;28;1916;-74
2021/03/15 00:56:22;;;;;;;;;;;;;;;2.00;92.85;100668.94;5068336;28;1861;-74
2021/03/15 00:58:48;;;;;;;;;;;;;;;1.96;93.34;100673.34;5066092;28;1877;-73
2021/03/15 01:01:16;;;;;;;;;;;;;;;1.96;93.19;100667.91;5065244;28;1882;-73
2021/03/15 01:03:42;;;;;;;;;;;;;;;1.94;93.38;100668.19;5068587;28;1867;-73
2021/03/15 01:06:10;;;;;;;;;;;;;;;1.96;93.56;100673.34;5068508;28;1886;-73
2021/03/15 01:08:35;;;;;;;;;;;;;;;2.14;94.03;100669.03;5067602;28;1794;-73
2021/03/15 01:11:01;;;;;;;;;;;;;;;2.20;93.61;100671.41;5068312;28;1972;-73
2021/03/15 01:13:26;;;;;;;;;;;;;;;2.34;93.75;100678.88;5067341;28;1829;-74
2021/03/15 01:15:52;;;;;;;;;;;;;;;2.39;93.19;100676.91;5065048;28;1869;-73
2021/03/15 01:18:18;;;;;;;;;;;;;;;2.49;92.50;100675.94;5064322;28;1755;-73
2021/03/15 01:20:43;;;;;;;;;;;;;;;2.50;92.47;100680.28;5067228;28;1945;-73
2021/03/15 01:23:10;;;;;;;;;;;;;;;2.51;92.58;100679.19;5068304;28;1856;-73
2021/03/15 01:25:40;;;;;;;;;;;;;;;2.57;92.96;100688.09;5067044;28;1815;-73
2021/03/15 01:28:08;;;;;;;;;;;;;;;2.57;92.76;100679.94;5063524;28;1895;-73
2021/03/15 01:30:35;;;;;;;;;;;;;;;2.57;93.56;100678.00;5067427;28;1955;-73
2021/03/15 01:33:02;;;;;;;;;;;;;;;2.56;93.88;100672.84;5064943;28;1861;-73
2021/03/15 01:35:27;;;;;;;;;;;;;;;2.55;93.31;100665.78;5067457;28;1797;-73
2021/03/15 01:37:52;;;;;;;;;;;;;;;2.60;92.87;100661.06;5063065;28;1834;-73
2021/03/15 01:40:19;;;;;;;;;;;;;;;2.57;92.61;100658.91;5067413;28;1788;-73
2021/03/15 01:42:45;;;;;;;;;;;;;;;2.48;92.64;100655.25;5068605;28;1874;-73
2021/03/15 01:45:11;;;;;;;;;;;;;;;2.39;92.79;100655.09;5067165;28;1797;-73
2021/03/15 01:47:38;;;;;;;;;;;;;;;2.31;92.41;100653.00;5064547;28;2400;-73
2021/03/15 01:50:06;;;;;;;;;;;;;;;2.21;91.86;100645.78;5064262;28;1890;-73
2021/03/15 01:52:33;;;;;;;;;;;;;;;2.15;92.39;100646.97;5065569;28;1777;-73
2021/03/15 01:54:58;;;;;;;;;;;;;;;2.09;92.46;100644.59;5064260;28;1881;-73
2021/03/15 01:57:25;;;;;;;;;;;;;;;2.12;93.10;100641.28;5066023;28;1799;-73
2021/03/15 01:59:50;;;;;;;;;;;;;;;2.08;92.80;100643.78;5069996;28;1508;-73
2021/03/15 02:02:15;;;;;;;;;;;;;;;2.01;92.52;100638.69;5064242;28;1830;-73
2021/03/15 02:04:41;;;;;;;;;;;;;;;1.95;93.01;100647.19;5067320;28;1848;-73
2021/03/15 02:07:06;;;;;;;;;;;;;;;1.86;93.21;100634.22;5067142;28;1835;-73
2021/03/15 02:09:33;;;;;;;;;;;;;;;1.89;93.51;100632.84;5063057;28;1890;-73
2021/03/15 02:12:08;;;;;;;;;;;;;;;1.85;93.45;100629.88;5064070;28;1800;-73
2021/03/15 02:14:49;;;;;;;;;;;;;;;1.84;93.34;100619.28;5066305;28;1945;-73
2021/03/15 02:17:23;;;;;;;;;;;;;;;1.83;93.74;100625.81;5066618;28;1856;-73
2021/03/15 02:20:28;;;;;;;;;;;;;;;1.75;93.94;100627.28;5060523;28;1806;-73
2021/03/15 02:23:00;;;;;;;;;;;;;;;1.69;93.88;100622.97;5063771;28;1766;-73
2021/03/15 02:25:58;;;;;;;;;;;;;;;1.60;94.09;100622.00;5064661;28;1957;-73
2021/03/15 02:28:38;;;;;;;;;;;;;;;1.60;94.29;100617.38;5065963;28;1801;-73
2021/03/15 02:31:13;;;;;;;;;;;;;;;1.68;94.68;100619.47;5065993;28;1902;-73
2021/03/15 02:34:10;;;;;;;;;;;;;;;1.65;94.98;100614.59;5065211;28;2110;-73
2021/03/15 02:36:38;;;;;;;;;;;;;;;1.61;94.89;100619.00;5064728;28;1799;-73
2021/03/15 02:39:17;;;;;;;;;;;;;;;1.54;94.85;100618.53;5068415;28;1929;-73
2021/03/15 02:41:45;;;;;;;;;;;;;;;1.40;94.77;100623.00;5063900;28;1850;-73
2021/03/15 02:44:13;;;;;;;;;;;;;;;1.27;94.94;100624.50;5063451;28;1910;-73
2021/03/15 02:46:43;;;;;;;;;;;;;;;1.27;94.94;100616.34;5064906;28;1913;-73
2021/03/15 02:49:13;;;;;;;;;;;;;;;1.23;95.31;100613.41;5061072;28;1985;-73
2021/03/15 02:51:41;;;;;;;;;;;;;;;1.34;95.78;100611.38;5063393;28;1799;-73
2021/03/15 02:54:10;;;;;;;;;;;;;;;1.39;95.77;100613.25;5066451;28;1754;-73
2021/03/15 02:56:44;;;;;;;;;;;;;;;1.46;95.90;100611.00;5065257;28;1913;-73
2021/03/15 02:59:11;;;;;;;;;;;;;;;1.51;95.76;100610.94;5062829;28;1794;-73
2021/03/15 03:01:40;;;;;;;;;;;;;;;1.55;95.97;100606.53;5063686;28;1800;-73
2021/03/15 03:04:09;;;;;;;;;;;;;;;1.60;96.13;100611.91;5066283;28;1763;-73
2021/03/15 03:06:37;;;;;;;;;;;;;;;1.62;95.76;100604.28;5065480;28;1805;-73
2021/03/15 03:09:05;;;;;;;;;;;;;;;1.70;95.79;100608.28;5056047;28;1902;-73
2021/03/15 03:11:32;;;;;;;;;;;;;;;1.77;96.27;100610.66;5062893;28;1862;-73
2021/03/15 03:13:59;;;;;;;;;;;;;;;1.86;96.07;100617.06;5065819;28;1952;-73
2021/03/15 03:16:29;;;;;;;;;;;;;;;1.96;95.96;100616.97;5064468;28;1894;-73
2021/03/15 03:18:57;;;;;;;;;;;;;;;2.02;95.97;100612.25;5065224;28;1857;-73
2021/03/15 03:21:25;;;;;;;;;;;;;;;2.08;95.92;100616.53;5066419;28;1821;-73
2021/03/15 03:23:53;;;;;;;;;;;;;;;2.13;95.08;100613.75;5063894;28;1827;-73
2021/03/15 03:26:24;;;;;;;;;;;;;;;2.17;95.06;100612.06;5062603;28;1826;-73
2021/03/15 03:28:51;;;;;;;;;;;;;;;2.19;94.88;100603.59;5062633;28;1822;-73
2021/03/15 03:31:18;;;;;;;;;;;;;;;2.24;94.50;100608.97;5079334;28;1960;-73
2021/03/15 03:33:44;;;;;;;;;;;;;;;2.26;94.52;100604.03;5061298;28;1754;-74
2021/03/15 03:36:10;;;;;;;;;;;;;;;2.28;94.55;100598.28;5062812;28;1918;-73
2021/03/15 03:38:35;;;;;;;;;;;;;;;2.31;94.65;100598.50;5062363;28;1818;-73
2021/03/15 03:41:01;;;;;;;;;;;;;;;2.29;94.51;100598.00;5062993;28;1751;-73
2021/03/15 03:43:26;;;;;;;;;;;;;;;2.27;94.48;100602.94;5068920;28;1889;-73
2021/03/15 03:45:51;;;;;;;;;;;;;;;2.28;94.04;100603.75;5069900;28;1856;-73
2021/03/15 03:48:17;;;;;;;;;;;;;;;2.29;94.38;100602.66;5071504;28;1833;-73
2021/03/15 03:50:42;;;;;;;;;;;;;;;2.29;94.44;100614.34;5073771;28;2047;-73
2021/03/15 03:53:15;;;;;;;;;;;;;;;2.32;94.03;100621.13;5068930;28;1864;-73
2021/03/15 03:56:05;;;;;;;;;;;;;;;2.31;93.70;100612.13;5069257;28;1891;-73
2021/03/15 03:58:34;;;;;;;;;;;;;;;2.29;93.75;100617.06;5068819;28;1775;-73
2021/03/15 04:01:01;;;;;;;;;;;;;;;2.29;93.81;100616.28;5084623;28;1855;-73
2021/03/15 04:03:30;;;;;;;;;;;;;;;2.31;93.90;100627.69;5068914;28;1921;-73
2021/03/15 04:06:02;;;;;;;;;;;;;;;2.32;93.83;100621.13;5069286;28;1818;-73
2021/03/15 04:08:32;;;;;;;;;;;;;;;2.33;93.97;100618.09;5066541;28;1861;-73
2021/03/15 04:11:00;;;;;;;;;;;;;;;2.36;93.54;100620.25;5070269;28;1962;-73
2021/03/15 04:13:28;;;;;;;;;;;;;;;2.39;93.48;100613.41;5074906;28;1791;-73
2021/03/15 04:15:54;;;;;;;;;;;;;;;2.39;93.45;100605.22;5084799;28;1751;-73
2021/03/15 04:18:24;;;;;;;;;;;;;;;2.39;93.44;100619.66;5069091;28;1782;-73
2021/03/15 04:20:56;;;;;;;;;;;;;;;2.43;93.35;100620.69;5069081;28;1840;-73
2021/03/15 04:23:29;;;;;;;;;;;;;;;2.47;92.88;100623.63;5071876;28;1746;-73
2021/03/15 04:25:56;;;;;;;;;;;;;;;2.48;93.41;100624.47;5072224;28;1925;-73
2021/03/15 04:28:23;;;;;;;;;;;;;;;2.48;93.63;100629.91;5072750;28;1563;-73
2021/03/15 04:30:49;;;;;;;;;;;;;;;2.48;92.94;100628.00;5072046;28;1890;-73
2021/03/15 04:33:15;;;;;;;;;;;;;;;2.54;92.93;100640.41;5070066;28;1930;-73
2021/03/15 04:35:42;;;;;;;;;;;;;;;2.53;93.15;100629.84;5068728;28;1669;-73
2021/03/15 04:38:09;;;;;;;;;;;;;;;2.53;92.79;100629.84;5068728;28;1787;-73
2021/03/15 04:40:36;;;;;;;;;;;;;;;2.55;93.38;100638.53;5068652;28;1885;-73
2021/03/15 04:43:03;;;;;;;;;;;;;;;2.58;93.13;100640.66;5068722;28;1829;-73
2021/03/15 04:45:34;;;;;;;;;;;;;;;2.56;92.92;100635.50;5075117;28;1910;-73
2021/03/15 04:48:05;;;;;;;;;;;;;;;2.58;93.16;100638.75;5068668;28;1920;-73
2021/03/15 04:50:32;;;;;;;;;;;;;;;2.59;93.29;100631.38;5067638;28;1948;-73
2021/03/15 04:53:01;;;;;;;;;;;;;;;2.59;92.96;100640.34;5073417;28;1774;-73
2021/03/15 04:55:26;;;;;;;;;;;;;;;2.59;93.05;100636.81;5065454;28;1870;-73
2021/03/15 04:57:57;;;;;;;;;;;;;;;2.60;92.79;100627.56;5065358;28;1877;-73
2021/03/15 05:00:23;;;;;;;;;;;;;;;2.60;92.85;100631.06;5065675;28;1747;-73
2021/03/15 05:02:50;;;;;;;;;;;;;;;2.58;92.91;100636.03;5065183;28;1808;-73
2021/03/15 05:05:16;;;;;;;;;;;;;;;2.62;93.17;100637.03;5065729;28;1854;-73
2021/03/15 05:07:45;;;;;;;;;;;;;;;2.63;92.53;100629.69;5069733;28;1947;-73
2021/03/15 05:10:12;;;;;;;;;;;;;;;2.62;92.15;100630.78;5065010;28;1957;-73
2021/03/15 05:12:37;;;;;;;;;;;;;;;2.62;92.67;100626.13;5065258;28;1773;-73
2021/03/15 05:15:07;;;;;;;;;;;;;;;2.61;92.47;100629.97;5064894;28;1786;-73
2021/03/15 05:17:35;;;;;;;;;;;;;;;2.59;92.50;100623.19;5057516;28;1802;-73
2021/03/15 05:20:03;;;;;;;;;;;;;;;2.62;92.58;100630.78;5063373;28;1567;-73
2021/03/15 05:22:31;;;;;;;;;;;;;;;2.63;92.28;100630.50;5066014;28;1803;-73
2021/03/15 05:24:57;;;;;;;;;;;;;;;2.63;92.01;100635.94;5064571;28;1858;-73
2021/03/15 05:27:23;;;;;;;;;;;;;;;2.62;92.27;100634.31;5065144;28;1793;-73
2021/03/15 05:29:52;;;;;;;;;;;;;;;2.64;92.34;100628.56;5067769;28;1902;-73
2021/03/15 05:32:19;;;;;;;;;;;;;;;2.66;92.02;100623.63;5067918;28;1767;-73
2021/03/15 05:34:45;;;;;;;;;;;;;;;2.64;91.97;100620.38;5067650;28;1600;-73
2021/03/15 05:37:11;;;;;;;;;;;;;;;2.67;92.28;100627.19;5069207;28;1838;-73
2021/03/15 05:39:37;;;;;;;;;;;;;;;2.64;91.56;100615.75;5070653;28;1881;-73
2021/03/15 05:42:09;;;;;;;;;;;;;;;2.67;91.73;100610.81;5062623;28;1591;-73
2021/03/15 05:44:53;;;;;;;;;;;;;;;2.65;91.82;100622.03;5066648;28;1790;-73
2021/03/15 05:47:30;;;;;;;;;;;;;;;2.63;92.43;100616.88;5066406;28;1937;-73
2021/03/15 05:50:10;;;;;;;;;;;;;;;2.58;92.20;100610.69;5059756;28;1977;-73
2021/03/15 05:53:12;;;;;;;;;;;;;;;2.58;92.22;100619.66;5064564;28;1780;-73
2021/03/15 05:55:52;;;;;;;;;;;;;;;2.64;92.29;100613.00;5066056;28;2138;-73
2021/03/15 05:58:50;;;;;;;;;;;;;;;2.69;92.53;100614.88;5067037;28;2040;-73
2021/03/15 06:01:49;;;;;;;;;;;;;;;2.69;92.08;100611.34;5067255;28;1870;-73
2021/03/15 06:04:36;;;;;;;;;;;;;;;2.68;92.08;100610.50;5063907;28;1853;-73
2021/03/15 06:07:03;;;;;;;;;;;;;;;2.65;92.01;100608.38;5062851;28;1822;-73
2021/03/15 06:09:30;;;;;;;;;;;;;;;2.68;91.88;100612.44;5073929;28;1902;-73
2021/03/15 06:12:04;;;;;;;;;;;;;;;2.74;91.75;100611.25;5063623;28;1820;-73
2021/03/15 06:14:30;;;;;;;;;;;;;;;2.74;91.78;100614.78;5064816;28;1961;-73
2021/03/15 06:16:58;;;;;;;;;;;;;;;2.76;91.91;100609.03;5063805;28;1806;-73
2021/03/15 06:19:24;;;;;;;;;;;;;;;2.77;91.51;100611.47;5063598;28;1807;-73
2021/03/15 06:21:52;;;;;;;;;;;;;;;2.74;92.08;100613.97;5064116;28;1760;-74
2021/03/15 06:24:19;;;;;;;;;;;;;;;2.82;91.80;100611.38;5064022;28;1808;-73
2021/03/15 06:26:45;;;;;;;;;;;;;;;2.88;91.66;100608.59;5065616;28;1655;-73
2021/03/15 06:29:10;;;;;;;;;;;;;;;2.95;91.30;100604.34;5061046;28;2465;-73
2021/03/15 06:31:39;;;;;;;;;;;;;;;2.97;91.13;100610.31;5064696;28;2173;-73
2021/03/15 06:34:05;;;;;;;;;;;;;;;2.95;91.07;100612.53;5066502;28;1897;-73
2021/03/15 06:36:33;;;;;;;;;;;;;;;2.95;91.23;100603.56;5066226;28;1828;-73
2021/03/15 06:39:00;;;;;;;;;;;;;;;2.98;91.40;100611.94;5056542;28;1725;-73
2021/03/15 06:41:28;;;;;;;;;;;;;;;3.07;90.82;100600.34;5063512;28;1834;-73
2021/03/15 06:43:53;;;;;;;;;;;;;;;3.09;91.46;100607.13;5065847;28;1889;-73
2021/03/15 06:46:19;;;;;;;;;;;;;;;3.18;91.18;100604.50;5066453;28;1815;-73
2021/03/15 06:48:45;;;;;;;;;;;;;;;3.27;90.39;100608.19;5065764;28;1781;-73
2021/03/15 06:51:10;;;;;;;;;;;;;;;3.26;90.16;100612.03;5062040;28;1965;-73
2021/03/15 06:53:40;;;;;;;;;;;;;;;3.30;90.39;100612.22;5063278;28;1994;-73
2021/03/15 06:56:14;;;;;;;;;;;;;;;3.28;90.97;100607.06;5063454;28;1876;-73
2021/03/15 06:58:49;;;;;;;;;;;;;;;3.29;90.26;100607.91;5063402;28;1941;-73
2021/03/15 07:01:25;;;;;;;;;;;;;;;3.39;90.56;100610.41;5063339;28;1849;-73
2021/03/15 07:04:03;;;;;;;;;;;;;;;3.51;89.85;100610.75;5064595;28;1795;-73
2021/03/15 07:06:34;;;;;;;;;;;;;;;3.69;89.28;100613.72;5066238;28;2496;-73
2021/03/15 07:09:14;;;;;;;;;;;;;;;3.83;88.53;100619.16;5061605;28;1862;-73
2021/03/15 07:11:39;;;;;;;;;;;;;;;3.61;89.67;100617.13;5065861;28;1818;-73
2021/03/15 07:14:05;;;;;;;;;;;;;;;3.41;90.74;100613.69;5062847;28;1873;-73
2021/03/15 07:16:32;;;;;;;;;;;;;;;3.33;91.53;100619.81;5062474;28;1809;-73
2021/03/15 07:19:00;;;;;;;;;;;;;;;3.29;91.40;100616.09;5063740;28;1863;-73
2021/03/15 07:21:37;;;;;;;;;;;;;;;3.43;91.51;100624.31;5063604;28;1874;-74
2021/03/15 07:24:07;;;;;;;;;;;;;;;3.58;91.00;100618.53;5065763;28;1858;-73
2021/03/15 07:26:33;;;;;;;;;;;;;;;3.59;90.39;100620.16;5062410;28;1854;-73
2021/03/15 07:28:59;;;;;;;;;;;;;;;3.55;90.81;100616.44;5065064;28;1814;-74
2021/03/15 07:31:30;;;;;;;;;;;;;;;3.51;91.22;100624.41;5065406;28;1951;-74
2021/03/15 07:33:55;;;;;;;;;;;;;;;3.64;90.66;100620.06;5065611;28;1816;-74
2021/03/15 07:36:31;;;;;;;;;;;;;;;3.83;90.79;100624.63;5067593;28;1869;-73
2021/03/15 07:38:58;;;;;;;;;;;;;;;3.98;89.03;100620.75;5067816;28;1930;-74
2021/03/15 07:41:24;;;;;;;;;;;;;;;4.09;89.72;100619.44;5065915;28;1882;-73
2021/03/15 07:43:51;;;;;;;;;;;;;;;4.20;87.86;100623.56;5065859;28;1829;-73
2021/03/15 07:46:21;;;;;;;;;;;;;;;4.32;88.21;100631.25;5069784;28;1619;-73
2021/03/15 07:48:47;;;;;;;;;;;;;;;4.22;87.63;100634.22;5070193;28;1878;-74
2021/03/15 07:51:12;;;;;;;;;;;;;;;4.04;89.24;100644.16;5062906;28;1961;-73
2021/03/15 07:53:49;;;;;;;;;;;;;;;3.84;89.14;100635.25;5063419;28;1822;-73
2021/03/15 07:56:19;;;;;;;;;;;;;;;3.65;90.95;100637.25;5063960;28;1872;-73
2021/03/15 07:58:45;;;;;;;;;;;;;;;3.63;91.44;100642.22;5059513;28;1893;-73
2021/03/15 08:01:12;;;;;;;;;;;;;;;3.66;91.41;100650.59;5063028;28;1867;-73
2021/03/15 08:03:39;;;;;;;;;;;;;;;3.71;91.16;100644.25;5065301;28;1751;-73
2021/03/15 08:06:06;;;;;;;;;;;;;;;3.75;92.06;100653.44;5064675;28;1829;-73
2021/03/15 08:08:32;;;;;;;;;;;;;;;3.83;91.25;100652.75;5065454;28;1837;-73
2021/03/15 08:10:57;;;;;;;;;;;;;;;3.81;91.24;100663.16;5065041;28;1985;-73
2021/03/15 08:13:29;;;;;;;;;;;;;;;3.86;91.52;100673.16;5063505;28;1950;-73
2021/03/15 08:15:59;;;;;;;;;;;;;;;3.88;91.58;100671.78;5065346;28;2126;-73
2021/03/15 08:18:27;;;;;;;;;;;;;;;3.98;91.69;100673.50;5055704;28;1883;-73
2021/03/15 08:21:04;;;;;;;;;;;;;;;4.21;91.02;100674.41;5061665;28;1715;-73
2021/03/15 08:23:31;;;;;;;;;;;;;;;4.42;89.69;100676.72;5063248;28;1849;-73
2021/03/15 08:26:15;;;;;;;;;;;;;;;4.64;88.07;100675.97;5062128;28;1878;-73
2021/03/15 08:28:43;;;;;;;;;;;;;;;4.95;87.21;100680.72;5066173;28;1846;-73
2021/03/15 08:31:20;;;;;;;;;;;;;;;5.21;86.82;100681.75;5068953;28;1894;-73
2021/03/15 08:33:48;;;;;;;;;;;;;;;5.79;85.22;100679.97;5065551;28;1806;-73
2021/03/15 08:36:14;;;;;;;;;;;;;;;5.81;83.58;100682.41;5065414;28;1924;-73
2021/03/15 08:38:39;;;;;;;;;;;;;;;5.76;84.30;100672.41;5065266;28;1909;-73
2021/03/15 08:41:06;;;;;;;;;;;;;;;5.46;84.87;100680.28;5065504;28;1892;-73
2021/03/15 08:43:36;;;;;;;;;;;;;;;5.64;84.44;100681.19;5066921;28;1900;-73
2021/03/15 08:46:05;;;;;;;;;;;;;;;6.11;82.93;100677.22;5068693;28;1755;-73
2021/03/15 08:48:33;;;;;;;;;;;;;;;7.86;77.11;100676.06;5060983;28;2110;-73
2021/03/15 08:50:59;;;;;;;;;;;;;;;10.10;67.58;100683.13;5068515;28;1913;-72
2021/03/15 08:53:36;;;;;;;;;;;;;;;8.88;69.22;100683.63;5067592;28;1872;-72
2021/03/15 08:56:12;;;;;;;;;;;;;;;13.66;56.76;100677.56;5064916;28;1900;-72
2021/03/15 08:58:44;;;;;;;;;;;;;;;16.22;47.65;100662.19;5065246;28;1876;-72
2021/03/15 09:01:12;;;;;;;;;;;;;;;16.60;47.65;100658.06;5065089;28;1894;-72
2021/03/15 09:03:56;;;;;;;;;;;;;;;14.45;48.78;100679.66;5066507;28;1960;-72
2021/03/15 09:06:46;;;;;;;;;;;;;;;12.21;55.77;100673.72;5068430;28;1919;-73
2021/03/15 09:09:24;;;;;;;;;;;;;;;9.75;61.91;100677.25;5064363;28;1902;-72
2021/03/15 09:12:10;;;;;;;;;;;;;;;13.11;52.89;100666.59;5065729;28;1899;-72
2021/03/15 09:14:37;;;;;;;;;;;;;;;14.51;49.50;100666.25;5064746;28;1952;-72
2021/03/15 09:17:33;;;;;;;;;;;;;;;12.04;54.70;100674.09;5065777;28;1927;-72
2021/03/15 09:20:14;;;;;;;;;;;;;;;15.88;46.94;100662.31;5054174;28;1897;-72
2021/03/15 09:22:39;;;;;;;;;;;;;;;16.98;44.16;100669.03;5067937;28;2473;-72
2021/03/15 09:25:16;;;;;;;;;;;;;;;18.67;40.98;100671.97;5065237;28;1913;-72
2021/03/15 09:27:43;;;;;;;;;;;;;;;16.23;43.54;100672.13;5064322;28;1790;-72
2021/03/15 09:30:22;;;;;;;;;;;;;;;14.27;47.87;100678.56;5072102;28;1897;-72
2021/03/15 09:32:55;;;;;;;;;;;;;;;12.64;52.24;100675.88;5064443;28;1698;-72
2021/03/15 09:35:24;;;;;;;;;;;;;;;9.97;58.65;100676.81;5064567;28;1718;-73
2021/03/15 09:38:00;;;;;;;;;;;;;;;8.64;62.46;100687.81;5067744;28;1814;-72
2021/03/15 09:40:32;;;;;;;;;;;;;;;8.06;66.50;100696.53;5073348;28;1837;-72
2021/03/15 09:42:58;;;;;;;;;;;;;;;8.61;65.35;100705.00;5069502;28;1878;-72
2021/03/15 09:45:27;;;;;;;;;;;;;;;11.15;58.22;100694.63;5065893;28;1920;-72
2021/03/15 09:47:52;;;;;;;;;;;;;;;11.51;53.88;100685.38;5065305;28;1875;-72
2021/03/15 09:50:23;;;;;;;;;;;;;;;10.37;55.44;100696.66;5064824;28;1883;-72
2021/03/15 09:52:48;;;;;;;;;;;;;;;9.39;58.63;100693.34;5059701;28;1803;-72
2021/03/15 09:55:14;;;;;;;;;;;;;;;8.91;61.42;100714.03;5067577;28;1975;-72
2021/03/15 09:57:39;;;;;;;;;;;;;;;8.49;61.25;100693.91;5065300;28;1936;-72
2021/03/15 10:00:07;;;;;;;;;;;;;;;8.07;63.79;100702.84;5061326;28;1739;-72
2021/03/15 10:02:32;;;;;;;;;;;;;;;7.36;65.55;100711.59;5066895;28;1611;-72
2021/03/15 10:04:58;;;;;;;;;;;;;;;6.97;66.83;100709.50;5064216;28;2060;-72
2021/03/15 10:07:23;;;;;;;;;;;;;;;6.99;68.91;100709.19;5063640;28;1790;-72
2021/03/15 10:09:48;;;;;;;;;;;;;;;7.11;67.77;100709.34;5058877;28;1910;-72
2021/03/15 10:12:16;;;;;;;;;;;;;;;7.32;67.06;100709.50;5066896;28;1833;-72
2021/03/15 10:14:42;;;;;;;;;;;;;;;7.55;65.63;100714.78;5066410;28;1808;-72
2021/03/15 10:17:07;;;;;;;;;;;;;;;7.83;65.32;100717.16;5065329;28;1778;-72
2021/03/15 10:19:33;;;;;;;;;;;;;;;8.46;63.15;100717.38;5061336;28;1778;-72
2021/03/15 10:22:10;;;;;;;;;;;;;;;9.23;62.04;100715.22;5064223;28;1806;-72
2021/03/15 10:24:38;;;;;;;;;;;;;;;9.20;61.93;100715.09;5067053;28;1832;-72
2021/03/15 10:27:09;;;;;;;;;;;;;;;8.77;62.62;100714.31;5062074;28;2404;-72
2021/03/15 10:29:35;;;;;;;;;;;;;;;8.36;63.93;100715.81;5061327;28;1959;-72
2021/03/15 10:32:06;;;;;;;;;;;;;;;7.82;66.26;100719.09;5066293;28;1885;-72
2021/03/15 10:34:31;;;;;;;;;;;;;;;7.55;69.28;100734.03;5063258;28;1727;-72
2021/03/15 10:36:57;;;;;;;;;;;;;;;7.93;69.11;100736.03;5063221;28;1831;-72
2021/03/15 10:39:24;;;;;;;;;;;;;;;7.85;67.70;100728.63;5066502;28;1925;-72
2021/03/15 10:41:51;;;;;;;;;;;;;;;8.17;67.20;100737.41;5063310;28;1702;-72
2021/03/15 10:44:23;;;;;;;;;;;;;;;8.49;65.52;100741.50;5063860;28;1826;-72
2021/03/15 10:46:54;;;;;;;;;;;;;;;8.60;64.96;100731.72;5057112;28;1864;-72
2021/03/15 10:49:25;;;;;;;;;;;;;;;8.87;64.96;100742.56;5070153;28;1958;-72
2021/03/15 10:51:54;;;;;;;;;;;;;;;9.02;63.82;100734.50;5062083;28;1705;-71
2021/03/15 10:54:34;;;;;;;;;;;;;;;9.75;63.20;100735.94;5062709;28;1964;-72
2021/03/15 10:57:17;;;;;;;;;;;;;;;9.46;61.06;100742.41;5068858;28;1761;-72
2021/03/15 10:59:44;;;;;;;;;;;;;;;9.22;62.89;100743.09;5062303;28;1735;-72
2021/03/15 11:02:18;;;;;;;;;;;;;;;8.98;63.14;100741.00;5066338;28;1957;-72
2021/03/15 11:04:43;;;;;;;;;;;;;;;8.57;63.55;100742.59;5056924;28;1858;-72
2021/03/15 11:07:24;;;;;;;;;;;;;;;8.09;64.46;100744.56;5059724;28;1826;-72
2021/03/15 11:10:17;;;;;;;;;;;;;;;7.91;64.97;100750.13;5057423;28;1898;-72
2021/03/15 11:12:50;;;;;;;;;;;;;;;8.23;63.48;100749.84;5059494;28;1778;-72
2021/03/15 11:15:20;;;;;;;;;;;;;;;8.51;62.80;100749.41;5056636;28;1885;-71
2021/03/15 11:18:04;;;;;;;;;;;;;;;8.67;62.69;100733.97;5060525;28;1926;-71
2021/03/15 11:20:48;;;;;;;;;;;;;;;8.64;62.13;100748.38;5061800;28;1787;-72
2021/03/15 11:23:26;;;;;;;;;;;;;;;8.24;62.75;100756.97;5065480;28;1842;-72
2021/03/15 11:26:01;;;;;;;;;;;;;;;8.15;63.85;100757.00;5065542;28;1650;-72
2021/03/15 11:28:31;;;;;;;;;;;;;;;7.75;64.31;100764.69;5061180;28;1847;-72
2021/03/15 11:30:59;;;;;;;;;;;;;;;7.55;65.84;100767.00;5056576;28;1898;-72
2021/03/15 11:33:24;;;;;;;;;;;;;;;7.67;65.57;100771.84;5061989;28;1885;-73
2021/03/15 11:35:50;;;;;;;;;;;;;;;7.77;65.47;100767.91;5068844;28;2740;-72
2021/03/15 11:38:22;;;;;;;;;;;;;;;7.63;64.33;100777.19;5064697;28;1838;-73
2021/03/15 11:40:47;;;;;;;;;;;;;;;7.64;64.18;100778.78;5062499;28;1794;-73
2021/03/15 11:43:13;;;;;;;;;;;;;;;7.83;64.97;100763.88;5080636;28;2011;-73
2021/03/15 11:45:39;;;;;;;;;;;;;;;8.13;63.13;100770.25;5056367;28;1846;-73
2021/03/15 11:48:05;;;;;;;;;;;;;;;8.01;60.93;100762.72;5061207;28;1898;-73
2021/03/15 11:50:34;;;;;;;;;;;;;;;8.48;61.45;100764.66;5063440;28;1898;-73
2021/03/15 11:53:01;;;;;;;;;;;;;;;8.64;58.30;100768.44;5059132;28;1738;-73
2021/03/15 11:55:26;;;;;;;;;;;;;;;8.53;58.65;100767.22;5055156;28;1809;-73
2021/03/15 11:57:52;;;;;;;;;;;;;;;8.31;59.58;100770.22;5066565;28;1931;-73
2021/03/15 12:00:19;;;;;;;;;;;;;;;8.01;60.22;100764.63;5074405;28;1334;-73
2021/03/15 12:02:46;;;;;;;;;;;;;;;8.09;61.54;100775.59;5074437;28;1815;-73
2021/03/15 12:05:13;;;;;;;;;;;;;;;7.89;61.61;100768.88;5066443;28;1791;-73
2021/03/15 12:07:39;;;;;;;;;;;;;;;7.60;61.88;100794.31;5072160;28;1655;-73
2021/03/15 12:10:08;;;;;;;;;;;;;;;7.92;61.57;100786.66;5071118;28;1886;-74
2021/03/15 12:12:33;;;;;;;;;;;;;;;8.06;60.61;100787.28;5070923;28;1824;-73
2021/03/15 12:14:59;;;;;;;;;;;;;;;7.82;60.37;100778.75;5068570;28;1841;-73
2021/03/15 12:17:24;;;;;;;;;;;;;;;7.64;61.32;100788.97;5070368;28;1685;-72
2021/03/15 12:19:50;;;;;;;;;;;;;;;7.63;61.83;100801.91;5068985;28;1810;-73
2021/03/15 12:22:15;;;;;;;;;;;;;;;8.45;60.57;100796.38;5072876;28;1435;-73
2021/03/15 12:24:40;;;;;;;;;;;;;;;9.28;56.81;100785.84;5065806;28;1857;-73
2021/03/15 12:27:07;;;;;;;;;;;;;;;9.61;54.14;100779.56;5066670;28;1873;-74
2021/03/15 12:29:33;;;;;;;;;;;;;;;9.73;54.76;100781.56;5069071;28;1969;-73
2021/03/15 12:32:00;;;;;;;;;;;;;;;9.57;54.75;100790.47;5068991;28;2138;-73
2021/03/15 12:34:25;;;;;;;;;;;;;;;8.85;56.45;100796.00;5061835;28;2157;-73
2021/03/15 12:36:51;;;;;;;;;;;;;;;8.24;60.49;100796.28;5062098;28;2600;-74
2021/03/15 12:39:17;;;;;;;;;;;;;;;8.34;61.53;100797.03;5060887;28;1796;-73
2021/03/15 12:41:42;;;;;;;;;;;;;;;8.42;62.03;100804.47;5074657;28;1212;-73
2021/03/15 12:44:08;;;;;;;;;;;;;;;8.84;60.30;100810.94;5067719;28;1319;-73
2021/03/15 12:46:33;;;;;;;;;;;;;;;8.91;60.35;100817.84;5068441;28;1858;-73
2021/03/15 12:48:58;;;;;;;;;;;;;;;8.48;61.09;100825.19;5061501;28;1926;-73
2021/03/15 12:51:24;;;;;;;;;;;;;;;8.09;63.82;100829.81;5067095;28;1893;-73
2021/03/15 12:53:50;;;;;;;;;;;;;;;7.45;66.09;100836.00;5068579;28;1747;-73
2021/03/15 12:56:16;;;;;;;;;;;;;;;7.67;66.14;100829.56;5067766;28;1764;-73
2021/03/15 12:58:41;;;;;;;;;;;;;;;8.05;65.48;100835.16;5066768;28;2144;-73
2021/03/15 13:01:06;;;;;;;;;;;;;;;8.02;65.34;100835.81;5068180;28;1803;-73
2021/03/15 13:03:32;;;;;;;;;;;;;;;8.37;65.50;100827.44;5065689;28;1980;-73
2021/03/15 13:05:57;;;;;;;;;;;;;;;9.65;62.53;100834.84;5065110;28;1806;-73